Galesville, Wisconsin
Current Conditions -  °F | °C
As of 6:15 PM on Monday 22 Dec 2014 (Local Time) from KLSE Reporting Station
Light Rain Light Rain  
Wind Chill: 28°   Ceiling: 1400
Heat Index: 36°   Visibility: 5mi
Dew Point: 33°   Wind: 13mph
Humidity: 89%   Direction: 90°E
Pressure: 29.62"   Gusts: NA
Location:  44.08°N, 91.35°W
Report Text: KLSE 230015Z 09011KT 5SM -RA BR FEW009 BKN014 OVC030 02/01 A2962 RMK AO2 P0001 T00220006
Loading
Personal Weather Stations






























Interactive Weather Map New forecast layout! Learn more

10-Day Weather Forecast

Advertisements
Track Severe Weather on mobile